Time;durP1;ratioP1;P1;durP2;ratioP2;P2;SDS_P1;SDS_P2;PMS_P1;PMS_P2;Temp;Humidity;BMP_temperature;BMP_pressure;BME280_temperature;BME280_humidity;BME280_pressure;Samples;Min_cycle;Max_cycle;Signal;HPM_P1;HPM_P2
2021/12/13 00:00:00;;;;;;;13.02;10.07;;;12.00;91.10;;;;;;5070359;28;20703;-83
2021/12/13 00:02:39;;;;;;;14.60;11.75;;;12.00;91.20;;;;;;5064477;28;20025;-83
2021/12/13 00:05:16;;;;;;;13.02;10.90;;;12.00;91.10;;;;;;5072219;28;20017;-82
2021/12/13 00:07:51;;;;;;;14.65;11.23;;;12.00;91.10;;;;;;5073222;28;20028;-82
2021/12/13 00:10:19;;;;;;;13.13;10.38;;;12.00;91.20;;;;;;5070534;28;20534;-82
2021/12/13 00:13:06;;;;;;;13.00;10.35;;;11.90;91.10;;;;;;5071038;28;20037;-82
2021/12/13 00:15:38;;;;;;;12.90;9.65;;;12.00;91.20;;;;;;5070940;28;20020;-81
2021/12/13 00:18:07;;;;;;;14.27;11.05;;;12.00;91.20;;;;;;5071675;28;20052;-81
2021/12/13 00:20:39;;;;;;;14.30;11.45;;;12.00;91.20;;;;;;5071109;28;20374;-81
2021/12/13 00:23:25;;;;;;;19.02;14.60;;;12.00;91.10;;;;;;5072578;28;20025;-82
2021/12/13 00:25:54;;;;;;;16.00;11.98;;;12.00;91.10;;;;;;5069491;28;20106;-83
2021/12/13 00:28:21;;;;;;;12.10;9.85;;;12.00;91.10;;;;;;5067728;28;20068;-81
2021/12/13 00:30:53;;;;;;;14.07;11.50;;;12.00;91.20;;;;;;5069006;28;20032;-81
2021/12/13 00:33:51;;;;;;;15.18;11.95;;;11.90;91.10;;;;;;5065870;28;20119;-81
2021/12/13 00:36:35;;;;;;;11.73;8.88;;;11.90;91.20;;;;;;5071828;28;20035;-81
2021/12/13 00:39:16;;;;;;;14.40;11.35;;;11.90;91.20;;;;;;5070768;28;20464;-81
2021/12/13 00:41:44;;;;;;;15.27;11.20;;;11.90;91.20;;;;;;5072280;28;20036;-81
2021/12/13 00:44:37;;;;;;;16.75;12.05;;;11.90;91.20;;;;;;5071959;28;20033;-81
2021/12/13 00:47:08;;;;;;;15.77;11.23;;;11.90;91.20;;;;;;5063877;28;20115;-80
2021/12/13 00:49:35;;;;;;;16.00;11.85;;;11.90;91.20;;;;;;5063549;28;20028;-80
2021/12/13 00:52:04;;;;;;;17.55;10.80;;;11.90;91.20;;;;;;5070835;28;20052;-81
2021/12/13 00:54:36;;;;;;;15.90;11.55;;;11.90;91.20;;;;;;5070931;28;20021;-81
2021/12/13 00:57:03;;;;;;;;;;;11.90;91.20;;;;;;5072685;28;20040;-82
2021/12/13 00:59:46;;;;;;;18.25;13.20;;;11.90;91.10;;;;;;5070111;28;20195;-82
2021/12/13 01:02:13;;;;;;;;;;;11.80;91.20;;;;;;5069212;28;20036;-82
2021/12/13 01:04:56;;;;;;;13.77;9.82;;;11.80;91.10;;;;;;5067548;28;19909;-83
2021/12/13 01:07:33;;;;;;;14.80;10.57;;;11.80;91.20;;;;;;5067808;28;20055;-83
2021/12/13 01:10:36;;;;;;;14.88;11.68;;;11.80;91.20;;;;;;5065832;28;20522;-82
2021/12/13 01:13:03;;;;;;;15.25;10.73;;;11.80;91.20;;;;;;5069490;28;20031;-82
2021/12/13 01:15:38;;;;;;;17.70;11.85;;;11.80;91.10;;;;;;5070318;28;20024;-81
2021/12/13 01:18:31;;;;;;;16.13;10.60;;;11.80;91.20;;;;;;5060013;28;20532;-82
2021/12/13 01:21:40;;;;;;;9.95;7.68;;;11.90;91.20;;;;;;5071153;28;20063;-81
2021/12/13 01:24:06;;;;;;;13.30;9.27;;;11.90;91.10;;;;;;5062725;28;20068;-81
2021/12/13 01:26:39;;;;;;;14.75;9.88;;;11.90;91.10;;;;;;5069100;28;20074;-81
2021/12/13 01:29:10;;;;;;;12.88;8.73;;;11.90;91.10;;;;;;5069389;28;20021;-80
2021/12/13 01:31:44;;;;;;;13.20;8.87;;;11.90;91.00;;;;;;5069398;28;20040;-80
2021/12/13 01:34:11;;;;;;;14.38;10.13;;;11.90;91.00;;;;;;5069112;28;20112;-79
2021/12/13 01:36:46;;;;;;;14.63;10.20;;;11.90;91.00;;;;;;5071216;28;20025;-81
2021/12/13 01:39:23;;;;;;;15.18;10.77;;;11.90;91.00;;;;;;5067797;28;20059;-80
2021/12/13 01:42:00;;;;;;;17.58;12.30;;;11.90;91.00;;;;;;5069176;28;20033;-78
2021/12/13 01:44:30;;;;;;;15.80;11.43;;;11.90;90.90;;;;;;5069628;28;20024;-79
2021/12/13 01:47:09;;;;;;;16.92;12.02;;;11.80;90.90;;;;;;5062018;28;20060;-80
2021/12/13 01:49:45;;;;;;;15.63;11.07;;;11.80;91.00;;;;;;5061708;28;20021;-80
2021/12/13 01:52:38;;;;;;;12.60;9.48;;;11.80;91.00;;;;;;5069660;28;20503;-79
2021/12/13 01:55:21;;;;;;;9.95;7.20;;;11.90;91.00;;;;;;5069439;28;20067;-80
2021/12/13 01:57:53;;;;;;;14.25;9.38;;;11.90;91.00;;;;;;5070272;28;20044;-79
2021/12/13 02:00:33;;;;;;;13.25;10.02;;;11.90;91.00;;;;;;5068697;28;20063;-78
2021/12/13 02:02:59;;;;;;;13.30;9.05;;;11.90;90.90;;;;;;5070707;28;20024;-81
2021/12/13 02:05:32;;;;;;;13.30;10.02;;;11.90;90.90;;;;;;5069798;28;20056;-81
2021/12/13 02:08:06;;;;;;;18.98;11.40;;;11.90;90.90;;;;;;5066495;28;20436;-80
2021/12/13 02:10:49;;;;;;;14.15;9.82;;;11.90;90.90;;;;;;5068295;28;20020;-80
2021/12/13 02:13:22;;;;;;;17.08;12.20;;;11.90;90.80;;;;;;5066109;28;20112;-80
2021/12/13 02:18:39;;;;;;;18.55;14.13;;;11.80;90.80;;;;;;5071132;28;20086;-82
2021/12/13 02:21:06;;;;;;;16.13;12.40;;;11.90;90.80;;;;;;5070064;28;20017;-82
2021/12/13 02:23:38;;;;;;;14.88;11.32;;;11.80;90.80;;;;;;5066496;28;20060;-84
2021/12/13 02:26:05;;;;;;;17.48;12.07;;;11.90;90.80;;;;;;5068870;28;20056;-84
2021/12/13 02:28:35;;;;;;;18.45;12.23;;;11.90;90.80;;;;;;5068421;28;20058;-83
2021/12/13 02:31:06;;;;;;;14.35;9.55;;;11.90;90.80;;;;;;5068314;28;20058;-83
2021/12/13 02:33:39;;;;;;;11.73;9.03;;;11.90;90.70;;;;;;5060353;28;20471;-81
2021/12/13 02:36:27;;;;;;;14.00;10.48;;;11.90;90.80;;;;;;5069293;28;20031;-81
2021/12/13 02:38:56;;;;;;;16.77;13.15;;;12.00;90.80;;;;;;5068395;28;20017;-81
2021/12/13 02:41:26;;;;;;;19.13;14.18;;;12.00;90.70;;;;;;5069271;28;20487;-81
2021/12/13 02:43:55;;;;;;;20.25;14.68;;;11.90;90.70;;;;;;5061109;28;20044;-82
2021/12/13 02:46:22;;;;;;;20.15;15.05;;;11.90;90.70;;;;;;5069442;28;20056;-80
2021/12/13 02:49:01;;;;;;;22.33;16.70;;;11.90;90.70;;;;;;5066864;28;20024;-80
2021/12/13 02:51:46;;;;;;;24.08;17.70;;;11.90;90.70;;;;;;5065757;28;20516;-80
2021/12/13 02:54:19;;;;;;;24.10;18.83;;;11.80;90.70;;;;;;5063414;28;20032;-80
2021/12/13 02:57:19;;;;;;;18.58;14.00;;;11.80;90.70;;;;;;5065950;28;20423;-80
2021/12/13 02:59:51;;;;;;;26.48;18.58;;;11.80;90.70;;;;;;5068222;28;20024;-79
2021/12/13 03:02:49;;;;;;;23.45;17.48;;;11.80;90.70;;;;;;5068171;28;20064;-82
2021/12/13 03:05:22;;;;;;;16.38;12.60;;;11.70;90.70;;;;;;5054782;28;20048;-79
2021/12/13 03:07:51;;;;;;;21.63;15.68;;;11.70;90.80;;;;;;5068198;28;20073;-78
2021/12/13 03:10:21;;;;;;;24.35;18.02;;;11.80;90.80;;;;;;5061120;28;20020;-79
2021/12/13 03:12:47;;;;;;;24.23;18.67;;;11.70;90.70;;;;;;5068794;28;20061;-80
2021/12/13 03:15:16;;;;;;;25.67;18.42;;;11.70;90.70;;;;;;5060026;28;20029;-80
2021/12/13 03:17:50;;;;;;;23.10;16.88;;;11.70;90.70;;;;;;5067020;28;20560;-80
2021/12/13 03:20:46;;;;;;;18.38;13.93;;;11.70;90.70;;;;;;5066821;28;20036;-80
2021/12/13 03:23:30;;;;;;;21.58;15.43;;;11.70;90.80;;;;;;5067486;28;20033;-81
2021/12/13 03:26:14;;;;;;;21.42;15.48;;;11.70;90.70;;;;;;5060658;28;20101;-78
2021/12/13 03:28:55;;;;;;;16.90;11.93;;;11.70;90.70;;;;;;5068729;28;20029;-78
2021/12/13 03:31:26;;;;;;;20.40;15.90;;;11.70;90.80;;;;;;5068318;28;20136;-79
2021/12/13 03:33:55;;;;;;;16.25;12.80;;;11.60;90.70;;;;;;5063056;28;20017;-82
2021/12/13 03:36:46;;;;;;;18.05;12.65;;;11.70;90.80;;;;;;5069112;28;20320;-80
2021/12/13 03:39:16;;;;;;;19.13;13.65;;;11.70;90.70;;;;;;5063225;28;20072;-80
2021/12/13 03:41:46;;;;;;;17.85;14.52;;;11.70;90.70;;;;;;5068292;28;20032;-78
2021/12/13 03:44:19;;;;;;;19.63;15.07;;;11.70;90.70;;;;;;5066217;28;20111;-77
2021/12/13 03:46:46;;;;;;;;;;;11.70;90.60;;;;;;5067218;28;20127;-79
2021/12/13 03:49:11;;;;;;;22.48;15.75;;;11.70;90.60;;;;;;5065389;28;20626;-79
2021/12/13 03:51:41;;;;;;;23.75;17.90;;;11.60;90.60;;;;;;5065344;28;20086;-83
2021/12/13 03:54:11;;;;;;;18.77;14.82;;;11.50;90.60;;;;;;5067185;28;20314;-79
2021/12/13 03:56:42;;;;;;;13.65;10.38;;;11.50;90.70;;;;;;5066537;28;20056;-80
2021/12/13 03:59:17;;;;;;;16.33;12.40;;;11.50;90.70;;;;;;5062071;28;20525;-79
2021/12/13 04:01:51;;;;;;;18.40;14.05;;;11.60;90.70;;;;;;5066688;28;20048;-80
2021/12/13 04:04:24;;;;;;;15.80;12.32;;;11.60;90.60;;;;;;5068180;28;20048;-79
2021/12/13 04:06:57;;;;;;;11.77;9.95;;;11.60;90.60;;;;;;5061472;28;20123;-81
2021/12/13 04:09:26;;;;;;;11.60;9.18;;;11.60;90.70;;;;;;5065085;28;20639;-83
2021/12/13 04:11:55;;;;;;;10.15;8.38;;;11.60;90.60;;;;;;5067786;28;20070;-83
2021/12/13 04:14:28;;;;;;;13.25;10.40;;;11.60;90.60;;;;;;5067137;28;20107;-83
2021/12/13 04:17:20;;;;;;;12.73;9.32;;;11.60;90.60;;;;;;5059340;28;20467;-81
2021/12/13 04:19:48;;;;;;;11.80;9.15;;;11.60;90.60;;;;;;5067171;28;20029;-81
2021/12/13 04:22:17;;;;;;;14.13;10.85;;;11.60;90.60;;;;;;5067513;28;20031;-81
2021/12/13 04:24:51;;;;;;;12.80;10.23;;;11.60;90.50;;;;;;5066115;28;20028;-80
2021/12/13 04:27:24;;;;;;;16.40;12.50;;;11.60;90.60;;;;;;5068236;28;20060;-80
2021/12/13 04:29:54;;;;;;;16.17;11.20;;;11.50;90.50;;;;;;5065404;28;20029;-81
2021/12/13 04:32:33;;;;;;;12.80;9.50;;;11.50;90.50;;;;;;5067342;28;20024;-80
2021/12/13 04:35:04;;;;;;;16.15;12.80;;;11.50;90.50;;;;;;5062136;28;20051;-81
2021/12/13 04:37:36;;;;;;;18.25;13.55;;;11.40;90.50;;;;;;5067550;28;20067;-80
2021/12/13 04:40:09;;;;;;;13.93;11.18;;;11.40;90.60;;;;;;5062551;28;20490;-83
2021/12/13 04:42:34;;;;;;;12.32;8.27;;;11.40;90.60;;;;;;5063947;28;20513;-84
2021/12/13 04:45:06;;;;;;;18.95;13.32;;;11.40;90.50;;;;;;5067930;28;20020;-83
2021/12/13 04:47:44;;;;;;;22.30;15.35;;;11.40;90.50;;;;;;5070074;28;20047;-81
2021/12/13 04:50:12;;;;;;;15.10;10.15;;;11.30;90.50;;;;;;5070325;28;20020;-79
2021/12/13 04:52:39;;;;;;;16.20;10.70;;;11.30;90.60;;;;;;5070778;28;20032;-81
2021/12/13 04:55:19;;;;;;;13.27;9.52;;;11.40;90.60;;;;;;5069880;28;20040;-79
2021/12/13 04:57:48;;;;;;;19.92;13.52;;;11.40;90.60;;;;;;5069192;28;20037;-80
2021/12/13 05:00:18;;;;;;;20.50;14.43;;;11.30;90.50;;;;;;5067494;28;20017;-80
2021/12/13 05:02:47;;;;;;;14.73;10.75;;;11.30;90.50;;;;;;5076808;28;20043;-82
2021/12/13 05:05:14;;;;;;;20.85;15.00;;;11.30;90.50;;;;;;5069860;28;20540;-83
2021/12/13 05:07:43;;;;;;;16.20;12.35;;;11.30;90.50;;;;;;5066792;28;20119;-83
2021/12/13 05:10:12;;;;;;;20.50;14.30;;;11.30;90.50;;;;;;5065429;28;20028;-83
2021/12/13 05:12:38;;;;;;;19.50;13.70;;;11.30;90.50;;;;;;5069545;28;20170;-83
2021/12/13 05:15:10;;;;;;;18.58;12.73;;;11.20;90.50;;;;;;5069472;28;20032;-82
2021/12/13 05:17:44;;;;;;;12.10;8.73;;;11.20;90.50;;;;;;5068412;28;20105;-82
2021/12/13 05:20:23;;;;;;;17.90;11.75;;;11.30;90.60;;;;;;5068968;28;20028;-82
2021/12/13 05:23:05;;;;;;;23.92;16.40;;;11.20;90.50;;;;;;5069907;28;20043;-80
2021/12/13 05:25:41;;;;;;;20.58;14.93;;;11.20;90.70;;;;;;5061552;28;20085;-80
2021/12/13 05:28:10;;;;;;;18.25;13.10;;;11.20;90.50;;;;;;5062364;28;20020;-81
2021/12/13 05:30:46;;;;;;;19.92;13.45;;;11.20;90.50;;;;;;5069183;28;20024;-81
2021/12/13 05:33:15;;;;;;;19.40;13.05;;;11.20;90.50;;;;;;5064309;28;20032;-80
2021/12/13 05:35:48;;;;;;;29.30;20.15;;;11.20;90.50;;;;;;5070121;28;20620;-82
2021/12/13 05:38:32;;;;;;;19.52;13.23;;;11.10;90.40;;;;;;5069111;28;20016;-82
2021/12/13 05:41:02;;;;;;;17.23;11.27;;;11.10;90.50;;;;;;5069421;28;20051;-79
2021/12/13 05:43:36;;;;;;;16.63;11.23;;;11.10;90.50;;;;;;5070618;28;20017;-79
2021/12/13 05:46:20;;;;;;;20.35;14.38;;;11.20;90.60;;;;;;5069466;28;20077;-81
2021/12/13 05:48:52;;;;;;;22.58;15.52;;;11.10;90.50;;;;;;5069749;28;20040;-78
2021/12/13 05:51:33;;;;;;;19.85;13.93;;;11.10;90.50;;;;;;5065744;28;20029;-79
2021/12/13 05:54:09;;;;;;;20.67;14.80;;;11.10;90.50;;;;;;5069209;28;20475;-80
2021/12/13 05:56:40;;;;;;;18.25;12.40;;;11.10;90.50;;;;;;5067369;28;20138;-81
2021/12/13 05:59:21;;;;;;;21.80;14.02;;;11.10;90.50;;;;;;5069714;28;20122;-80
2021/12/13 06:02:11;;;;;;;21.25;14.90;;;11.10;90.40;;;;;;5063380;28;20707;-79
2021/12/13 06:04:56;;;;;;;19.63;13.52;;;11.00;90.40;;;;;;5066326;28;20547;-79
2021/12/13 06:07:29;;;;;;;18.77;13.23;;;11.00;90.50;;;;;;5065448;28;20036;-80
2021/12/13 06:10:13;;;;;;;27.83;18.55;;;11.10;90.50;;;;;;5068126;28;20040;-78
2021/12/13 06:12:48;;;;;;;22.23;15.63;;;11.00;90.50;;;;;;5065390;28;20170;-79
2021/12/13 06:15:16;;;;;;;23.52;15.40;;;11.00;90.50;;;;;;5064386;28;20029;-79
2021/12/13 06:17:50;;;;;;;17.40;12.30;;;11.00;90.50;;;;;;5065061;28;20029;-79
2021/12/13 06:21:02;;;;;;;20.70;13.25;;;11.00;90.50;;;;;;5066600;28;20036;-79
2021/12/13 06:23:31;;;;;;;16.38;11.32;;;11.00;90.50;;;;;;5038425;28;20102;-80
2021/12/13 06:26:06;;;;;;;18.85;12.35;;;11.00;90.50;;;;;;5042603;28;20187;-80
2021/12/13 06:28:38;;;;;;;15.70;10.85;;;11.00;90.50;;;;;;5048661;28;20579;-78
2021/12/13 06:31:16;;;;;;;16.75;11.90;;;11.00;90.40;;;;;;5062649;28;20059;-79
2021/12/13 06:33:52;;;;;;;16.83;11.68;;;11.00;90.40;;;;;;5061913;28;20491;-80
2021/12/13 06:36:32;;;;;;;20.98;13.13;;;11.00;90.40;;;;;;5065720;28;20024;-79
2021/12/13 06:39:12;;;;;;;26.08;17.08;;;11.00;90.40;;;;;;5064380;28;20761;-79
2021/12/13 06:41:42;;;;;;;22.95;15.75;;;11.00;90.40;;;;;;5077523;28;20028;-78
2021/12/13 06:44:30;;;;;;;17.27;11.68;;;11.00;90.40;;;;;;5066833;28;20029;-78
2021/12/13 06:47:10;;;;;;;21.73;13.35;;;11.00;90.40;;;;;;5057066;28;20048;-78
2021/12/13 06:49:40;;;;;;;19.15;13.00;;;11.00;90.40;;;;;;5065582;28;20043;-79
2021/12/13 06:52:11;;;;;;;17.77;12.10;;;11.00;90.40;;;;;;5066258;28;20027;-80
2021/12/13 06:54:55;;;;;;;20.97;15.00;;;11.00;90.40;;;;;;5061835;28;20453;-79
2021/12/13 06:57:42;;;;;;;18.35;12.80;;;10.90;90.30;;;;;;5063556;28;20028;-80
2021/12/13 07:00:11;;;;;;;16.83;11.13;;;11.00;90.30;;;;;;5060033;28;20074;-80
2021/12/13 07:03:07;;;;;;;19.48;12.43;;;10.90;90.30;;;;;;5065104;28;20025;-79
2021/12/13 07:05:45;;;;;;;17.42;11.40;;;11.00;90.30;;;;;;5057064;28;20055;-80
2021/12/13 07:08:27;;;;;;;16.15;11.43;;;10.90;90.30;;;;;;5059439;28;20059;-79
2021/12/13 07:10:53;;;;;;;21.13;13.60;;;10.90;90.30;;;;;;5066615;28;20051;-78
2021/12/13 07:13:42;;;;;;;17.10;11.00;;;10.90;90.30;;;;;;5067021;28;20476;-78
2021/12/13 07:16:24;;;;;;;18.58;12.55;;;10.90;90.30;;;;;;5066994;28;20066;-78
2021/12/13 07:18:58;;;;;;;17.90;11.23;;;10.90;90.30;;;;;;5058199;28;20074;-78
2021/12/13 07:21:31;;;;;;;17.70;13.05;;;10.90;90.30;;;;;;5062677;28;20678;-78
2021/12/13 07:24:09;;;;;;;19.15;12.93;;;10.90;90.30;;;;;;5054330;28;20032;-77
2021/12/13 07:26:49;;;;;;;15.13;10.38;;;10.90;90.30;;;;;;5063831;28;20044;-76
2021/12/13 07:29:21;;;;;;;17.48;11.80;;;10.90;90.30;;;;;;5065320;28;20678;-78
2021/12/13 07:32:06;;;;;;;16.27;10.85;;;10.90;90.30;;;;;;5066577;28;20400;-77
2021/12/13 07:34:32;;;;;;;18.02;11.70;;;11.00;90.30;;;;;;5057702;28;20029;-79
2021/12/13 07:37:01;;;;;;;18.25;12.95;;;10.90;90.20;;;;;;5065918;28;20024;-77
2021/12/13 07:39:30;;;;;;;17.35;10.80;;;10.90;90.50;;;;;;5067601;28;20028;-78
2021/12/13 07:42:00;;;;;;;16.42;10.30;;;11.00;90.20;;;;;;5059293;28;20043;-77
2021/12/13 07:44:43;;;;;;;20.70;14.23;;;11.00;90.30;;;;;;5066810;28;20506;-77
2021/12/13 07:47:14;;;;;;;17.25;12.38;;;11.00;90.20;;;;;;5064206;28;20043;-77
2021/12/13 07:49:43;;;;;;;17.30;11.50;;;10.90;90.20;;;;;;5062804;28;20032;-77
2021/12/13 07:52:31;;;;;;;22.40;13.60;;;10.90;90.20;;;;;;5061028;28;20440;-78
2021/12/13 07:55:12;;;;;;;19.73;13.25;;;10.90;90.10;;;;;;5063155;28;20445;-78
2021/12/13 07:57:37;;;;;;;18.67;12.63;;;10.80;90.10;;;;;;5064141;28;20028;-78
2021/12/13 08:00:24;;;;;;;16.65;11.18;;;10.80;90.10;;;;;;5064077;28;20025;-77
2021/12/13 08:03:03;;;;;;;22.45;14.10;;;10.90;90.20;;;;;;5065786;28;20032;-77
2021/12/13 08:05:37;;;;;;;19.00;12.52;;;10.80;90.10;;;;;;5065447;28;20483;-76
2021/12/13 08:08:04;;;;;;;18.63;11.80;;;10.80;90.10;;;;;;5066030;28;20016;-77
2021/12/13 08:10:42;;;;;;;18.92;13.25;;;10.80;90.10;;;;;;5066627;28;20035;-77
2021/12/13 08:13:15;;;;;;;16.77;10.93;;;10.80;90.10;;;;;;5066303;28;20063;-76
2021/12/13 08:15:54;;;;;;;14.30;10.25;;;10.80;90.10;;;;;;5061933;28;20028;-78
2021/12/13 08:18:31;;;;;;;16.15;10.75;;;10.80;90.10;;;;;;5064610;28;20024;-77
2021/12/13 08:21:00;;;;;;;19.20;11.50;;;10.80;90.10;;;;;;5070368;28;20040;-77
2021/12/13 08:23:35;;;;;;;15.07;10.18;;;10.90;90.10;;;;;;5068200;28;20420;-77
2021/12/13 08:26:06;;;;;;;14.07;10.25;;;10.80;90.10;;;;;;5063194;28;20029;-77
2021/12/13 08:28:42;;;;;;;18.88;11.40;;;10.80;90.10;;;;;;5065327;28;20032;-77
2021/12/13 08:31:17;;;;;;;18.58;12.07;;;10.80;90.10;;;;;;5059437;28;20111;-77
2021/12/13 08:33:47;;;;;;;17.42;11.43;;;10.80;90.10;;;;;;5064621;28;20570;-76
2021/12/13 08:36:33;;;;;;;18.00;12.60;;;10.80;90.10;;;;;;5063971;28;20025;-77
2021/12/13 08:39:04;;;;;;;16.45;11.60;;;10.80;90.10;;;;;;5065442;28;20032;-77
2021/12/13 08:41:36;;;;;;;15.00;10.35;;;10.80;90.00;;;;;;5067382;28;20024;-77
2021/12/13 08:44:05;;;;;;;;;;;10.80;90.10;;;;;;5067431;28;20032;-78
2021/12/13 08:46:36;;;;;;;16.83;11.38;;;10.80;90.00;;;;;;5053849;28;19917;-77
2021/12/13 08:49:30;;;;;;;19.52;12.02;;;10.80;90.10;;;;;;5068600;28;20031;-77
2021/12/13 08:52:07;;;;;;;15.63;11.02;;;10.80;90.10;;;;;;5064379;28;20035;-76
2021/12/13 08:54:40;;;;;;;17.45;12.73;;;10.80;90.10;;;;;;5064005;28;20024;-77
2021/12/13 08:57:12;;;;;;;14.30;10.00;;;10.80;90.00;;;;;;5064528;28;20029;-76
2021/12/13 08:59:51;;;;;;;17.38;10.20;;;10.80;90.00;;;;;;5066014;28;20077;-76
2021/12/13 09:02:18;;;;;;;16.55;10.57;;;10.80;90.00;;;;;;5061331;28;20017;-77
2021/12/13 09:05:07;;;;;;;17.67;11.68;;;10.80;90.00;;;;;;5065078;28;20028;-76
2021/12/13 09:07:34;;;;;;;13.77;9.40;;;10.80;90.00;;;;;;5064644;28;20051;-77
2021/12/13 09:09:59;;;;;;;13.20;9.02;;;10.80;90.00;;;;;;5065702;28;20040;-78
2021/12/13 09:12:42;;;;;;;15.25;10.80;;;10.80;90.00;;;;;;5064988;28;20024;-78
2021/12/13 09:15:22;;;;;;;16.33;11.23;;;10.90;90.00;;;;;;5061338;28;20024;-78
2021/12/13 09:17:49;;;;;;;16.70;10.80;;;10.80;89.90;;;;;;5062478;28;20032;-78
2021/12/13 09:20:18;;;;;;;12.38;7.90;;;10.80;89.90;;;;;;5066441;28;20414;-77
2021/12/13 09:22:54;;;;;;;14.60;8.88;;;10.80;89.90;;;;;;5066572;28;22044;-78
2021/12/13 09:25:40;;;;;;;14.60;10.60;;;10.90;90.00;;;;;;5062424;28;20131;-77
2021/12/13 09:28:17;;;;;;;13.93;9.10;;;10.90;89.90;;;;;;5065407;28;20023;-78
2021/12/13 09:30:48;;;;;;;15.95;9.88;;;10.90;89.90;;;;;;5066375;28;20116;-78
2021/12/13 09:33:24;;;;;;;17.55;11.32;;;10.90;89.80;;;;;;5065474;28;20063;-79
2021/12/13 09:36:03;;;;;;;15.50;10.63;;;10.80;89.60;;;;;;5065251;28;20611;-78
2021/12/13 09:38:59;;;;;;;13.30;9.95;;;10.80;89.70;;;;;;5065259;28;20031;-79
2021/12/13 09:41:45;;;;;;;14.32;10.05;;;10.80;89.70;;;;;;5065037;28;20032;-77
2021/12/13 09:44:12;;;;;;;13.45;9.48;;;10.80;89.70;;;;;;5064968;28;20029;-77
2021/12/13 09:46:37;;;;;;;13.52;9.15;;;10.90;90.10;;;;;;5064781;28;20064;-79
2021/12/13 09:49:11;;;;;;;10.43;7.63;;;10.90;89.80;;;;;;5063604;28;20063;-78
2021/12/13 09:51:46;;;;;;;15.30;10.05;;;10.90;89.80;;;;;;5060713;28;20089;-78
2021/12/13 09:54:14;;;;;;;10.98;7.55;;;10.90;89.60;;;;;;5064318;28;20021;-86
2021/12/13 09:56:49;;;;;;;12.40;9.18;;;10.90;89.60;;;;;;5065691;28;20119;-79
2021/12/13 09:59:37;;;;;;;13.52;9.63;;;10.90;89.60;;;;;;5061746;28;20028;-79
2021/12/13 10:02:09;;;;;;;13.05;8.90;;;10.90;90.00;;;;;;5057352;28;20072;-77
2021/12/13 10:04:41;;;;;;;13.68;8.90;;;10.90;89.50;;;;;;5063529;28;20419;-79
2021/12/13 10:07:09;;;;;;;10.85;8.48;;;10.90;89.40;;;;;;5058638;28;20595;-77
2021/12/13 10:09:50;;;;;;;13.60;9.73;;;10.90;89.50;;;;;;5062603;28;20425;-78
2021/12/13 10:12:28;;;;;;;14.75;10.65;;;10.90;89.40;;;;;;5059305;28;20039;-78
2021/12/13 10:15:03;;;;;;;15.57;10.68;;;10.90;89.30;;;;;;5066362;28;20016;-78
2021/12/13 10:17:32;;;;;;;12.10;9.02;;;10.90;89.40;;;;;;5062217;28;20028;-80
2021/12/13 10:20:03;;;;;;;12.00;8.60;;;10.90;89.30;;;;;;5064888;28;20031;-78
2021/12/13 10:22:31;;;;;;;13.02;9.05;;;10.90;89.10;;;;;;5061191;28;20036;-78
2021/12/13 10:25:04;;;;;;;14.85;10.57;;;10.90;89.20;;;;;;5065540;28;20178;-78
2021/12/13 10:27:30;;;;;;;13.23;9.27;;;10.80;89.00;;;;;;5066293;28;20029;-79
2021/12/13 10:29:59;;;;;;;12.30;8.70;;;10.80;89.10;;;;;;5066871;28;20020;-78
2021/12/13 10:32:33;;;;;;;11.27;8.00;;;10.80;89.20;;;;;;5065802;28;20589;-78
2021/12/13 10:35:08;;;;;;;12.10;9.20;;;10.80;89.20;;;;;;5064107;28;20627;-78
2021/12/13 10:37:36;;;;;;;10.80;7.85;;;10.90;89.20;;;;;;5066291;28;20107;-79
2021/12/13 10:40:15;;;;;;;11.30;8.50;;;10.90;89.20;;;;;;5066150;28;20452;-78
2021/12/13 10:42:50;;;;;;;14.30;9.57;;;10.90;89.10;;;;;;5067644;28;20073;-80
2021/12/13 10:45:23;;;;;;;11.23;8.55;;;10.90;89.00;;;;;;5065994;28;20062;-80
2021/12/13 10:47:52;;;;;;;13.30;8.75;;;10.90;89.00;;;;;;5066206;28;20694;-80
2021/12/13 10:50:25;;;;;;;13.20;7.78;;;10.80;88.90;;;;;;5067871;28;20059;-79
2021/12/13 10:52:53;;;;;;;9.63;6.35;;;10.90;89.10;;;;;;5067251;28;20016;-80
2021/12/13 10:55:24;;;;;;;10.57;8.02;;;11.00;89.10;;;;;;5059600;28;20021;-79
2021/12/13 10:57:50;;;;;;;12.60;9.05;;;11.00;89.00;;;;;;5067329;28;20033;-81
2021/12/13 11:00:40;;;;;;;11.20;8.18;;;11.00;88.80;;;;;;5064428;28;20220;-80
2021/12/13 11:03:14;;;;;;;9.82;7.18;;;11.00;89.50;;;;;;5065798;28;20028;-81
2021/12/13 11:05:40;;;;;;;12.32;8.70;;;11.00;88.80;;;;;;5066717;28;20044;-80
2021/12/13 11:08:07;;;;;;;10.35;6.60;;;11.00;88.70;;;;;;5065812;28;20020;-79
2021/12/13 11:10:39;;;;;;;10.15;7.68;;;11.00;88.70;;;;;;5066674;28;20479;-80
2021/12/13 11:13:04;;;;;;;10.23;7.97;;;11.00;88.60;;;;;;5065801;28;20073;-81
2021/12/13 11:15:35;;;;;;;9.20;7.25;;;11.00;88.50;;;;;;5063594;28;20036;-80
2021/12/13 11:18:05;;;;;;;10.35;7.65;;;11.00;88.50;;;;;;5067653;28;20039;-84
2021/12/13 11:20:37;;;;;;;10.82;8.10;;;11.00;88.50;;;;;;5065805;28;20012;-82
2021/12/13 11:23:04;;;;;;;8.18;5.80;;;11.00;88.40;;;;;;5065105;28;20097;-82
2021/12/13 11:25:54;;;;;;;10.20;7.45;;;11.00;88.50;;;;;;5063215;28;20029;-81
2021/12/13 11:28:21;;;;;;;11.75;8.65;;;11.00;88.50;;;;;;5062852;28;20110;-81
2021/12/13 11:30:48;;;;;;;10.90;7.72;;;11.00;88.40;;;;;;5064977;28;20032;-81
2021/12/13 11:33:32;;;;;;;9.82;7.18;;;10.90;88.40;;;;;;5063888;28;20524;-81
2021/12/13 11:36:07;;;;;;;9.75;7.43;;;10.90;88.40;;;;;;5065346;28;20034;-82
2021/12/13 11:38:59;;;;;;;11.68;6.55;;;10.90;88.40;;;;;;5064251;28;20392;-82
2021/12/13 11:41:43;;;;;;;;;;;10.90;88.40;;;;;;5064587;28;20075;-83
2021/12/13 11:44:46;;;;;;;7.15;5.50;;;10.90;88.20;;;;;;5065707;28;20387;-83
2021/12/13 11:47:40;;;;;;;8.20;6.22;;;10.90;88.50;;;;;;5059563;28;20503;-82
2021/12/13 11:50:48;;;;;;;9.98;7.28;;;10.90;88.50;;;;;;5056293;28;20012;-83
2021/12/13 11:53:33;;;;;;;11.82;7.78;;;10.90;88.50;;;;;;5061150;28;20397;-83
2021/12/13 11:56:06;;;;;;;11.82;7.38;;;10.90;88.40;;;;;;5067643;28;20032;-84
2021/12/13 11:58:50;;;;;;;9.32;6.85;;;10.90;88.40;;;;;;5064438;28;20029;-82
2021/12/13 12:01:47;;;;;;;9.07;6.45;;;10.90;88.30;;;;;;5066767;28;20573;-83
2021/12/13 12:04:54;;;;;;;10.48;7.43;;;10.90;88.40;;;;;;5063759;28;20040;-82
2021/12/13 12:07:41;;;;;;;9.82;7.05;;;11.00;88.30;;;;;;5066298;28;20071;-82
2021/12/13 12:10:38;;;;;;;11.13;7.55;;;11.00;88.30;;;;;;5065335;28;20609;-83
2021/12/13 12:13:42;;;;;;;8.98;6.50;;;10.90;88.20;;;;;;5065997;28;20074;-84
2021/12/13 12:16:09;;;;;;;7.90;6.05;;;11.00;88.30;;;;;;5059518;28;20043;-82
2021/12/13 12:18:38;;;;;;;9.90;6.20;;;11.00;88.30;;;;;;5067658;28;20039;-82
2021/12/13 12:21:58;;;;;;;8.50;6.53;;;11.10;88.40;;;;;;5068973;28;20024;-81
2021/12/13 12:24:37;;;;;;;8.63;6.07;;;11.00;88.10;;;;;;5024998;28;20044;-81
2021/12/13 12:27:20;;;;;;;8.35;5.88;;;11.00;88.10;;;;;;5059667;28;20497;-82
2021/12/13 12:29:53;;;;;;;;;;;11.10;88.20;;;;;;5065991;28;20028;-83
2021/12/13 12:32:32;;;;;;;8.25;5.25;;;11.10;88.00;;;;;;5066085;28;19909;-82
2021/12/13 12:35:03;;;;;;;6.55;4.97;;;11.00;88.00;;;;;;5062226;28;20432;-83
2021/12/13 12:37:31;;;;;;;7.88;5.57;;;11.00;88.10;;;;;;5066037;28;20048;-84
2021/12/13 12:40:09;;;;;;;7.88;6.03;;;11.10;88.00;;;;;;5068262;28;20021;-82
2021/12/13 12:42:46;;;;;;;8.32;6.10;;;11.10;87.90;;;;;;5068954;28;20506;-85
2021/12/13 12:45:18;;;;;;;8.60;6.60;;;11.10;87.90;;;;;;5066952;28;20020;-84
2021/12/13 12:47:47;;;;;;;10.07;6.90;;;11.00;87.80;;;;;;5068253;28;20024;-84
2021/12/13 12:50:15;;;;;;;8.35;6.30;;;11.00;87.70;;;;;;5070468;28;20032;-84
2021/12/13 12:52:54;;;;;;;9.63;7.10;;;11.00;87.90;;;;;;5066921;28;20421;-85
2021/12/13 12:55:26;;;;;;;10.02;6.65;;;11.10;87.80;;;;;;5065932;28;20028;-84
2021/12/13 12:57:51;;;;;;;7.50;5.45;;;11.00;87.60;;;;;;5068471;28;20056;-82
2021/12/13 13:00:28;;;;;;;9.45;6.53;;;11.10;87.70;;;;;;5068813;28;20067;-84
2021/12/13 13:02:54;;;;;;;5.95;4.65;;;11.10;87.60;;;;;;5066014;28;20024;-83
2021/12/13 13:05:23;;;;;;;6.22;4.60;;;11.10;87.60;;;;;;5066366;28;20025;-81
2021/12/13 13:07:53;;;;;;;7.15;5.32;;;11.10;87.60;;;;;;5068296;28;20048;-83
2021/12/13 13:10:28;;;;;;;7.68;5.28;;;11.10;87.60;;;;;;5065752;28;20650;-84
2021/12/13 13:13:06;;;;;;;6.90;5.50;;;11.10;87.60;;;;;;5067857;28;20066;-82
2021/12/13 13:15:38;;;;;;;7.88;5.05;;;11.10;87.60;;;;;;5066636;28;20508;-82
2021/12/13 13:18:13;;;;;;;6.05;4.43;;;11.10;87.50;;;;;;5065495;28;20104;-82